sensor_id;sensor_type;location;lat;lon;timestamp;temperature;humidity
1329;DHT22;658;48.820;9.354;2024-03-08T00:02:21;22.70;37.70
1329;DHT22;658;48.820;9.354;2024-03-08T00:06:23;22.70;37.70
1329;DHT22;658;48.820;9.354;2024-03-08T00:10:25;22.80;37.70
1329;DHT22;658;48.820;9.354;2024-03-08T00:14:25;22.70;37.70
1329;DHT22;658;48.820;9.354;2024-03-08T00:18:26;22.70;37.70
1329;DHT22;658;48.820;9.354;2024-03-08T00:22:27;22.70;37.70
1329;DHT22;658;48.820;9.354;2024-03-08T00:26:30;22.60;37.60
1329;DHT22;658;48.820;9.354;2024-03-08T00:30:31;22.60;37.70
1329;DHT22;658;48.820;9.354;2024-03-08T00:34:32;22.60;37.70
1329;DHT22;658;48.820;9.354;2024-03-08T00:38:32;22.60;37.70
1329;DHT22;658;48.820;9.354;2024-03-08T00:42:35;22.60;37.70
1329;DHT22;658;48.820;9.354;2024-03-08T00:46:35;22.60;37.70
1329;DHT22;658;48.820;9.354;2024-03-08T00:50:36;22.50;37.60
1329;DHT22;658;48.820;9.354;2024-03-08T00:54:37;22.60;37.70
1329;DHT22;658;48.820;9.354;2024-03-08T00:58:37;22.60;37.80
1329;DHT22;658;48.820;9.354;2024-03-08T01:02:39;22.50;37.70
1329;DHT22;658;48.820;9.354;2024-03-08T01:06:39;22.50;37.70
1329;DHT22;658;48.820;9.354;2024-03-08T01:10:40;22.50;37.70
1329;DHT22;658;48.820;9.354;2024-03-08T01:14:40;22.50;37.70
1329;DHT22;658;48.820;9.354;2024-03-08T01:18:41;22.50;37.70
1329;DHT22;658;48.820;9.354;2024-03-08T01:22:42;22.40;37.60
1329;DHT22;658;48.820;9.354;2024-03-08T01:26:42;22.40;37.70
1329;DHT22;658;48.820;9.354;2024-03-08T01:30:43;22.40;37.70
1329;DHT22;658;48.820;9.354;2024-03-08T01:34:44;22.40;37.70
1329;DHT22;658;48.820;9.354;2024-03-08T01:38:45;22.40;37.50
1329;DHT22;658;48.820;9.354;2024-03-08T01:42:48;22.40;37.70
1329;DHT22;658;48.820;9.354;2024-03-08T01:46:50;22.30;37.50
1329;DHT22;658;48.820;9.354;2024-03-08T01:50:52;22.30;37.50
1329;DHT22;658;48.820;9.354;2024-03-08T01:54:55;22.30;37.70
1329;DHT22;658;48.820;9.354;2024-03-08T01:58:55;22.30;37.70
1329;DHT22;658;48.820;9.354;2024-03-08T02:02:57;22.30;37.70
1329;DHT22;658;48.820;9.354;2024-03-08T02:06:58;22.30;37.60
1329;DHT22;658;48.820;9.354;2024-03-08T02:11:01;22.30;37.60
1329;DHT22;658;48.820;9.354;2024-03-08T02:15:02;22.30;37.50
1329;DHT22;658;48.820;9.354;2024-03-08T02:19:03;22.40;37.60
1329;DHT22;658;48.820;9.354;2024-03-08T02:23:04;22.30;37.60
1329;DHT22;658;48.820;9.354;2024-03-08T02:27:05;22.40;37.60
1329;DHT22;658;48.820;9.354;2024-03-08T02:31:05;22.40;37.50
1329;DHT22;658;48.820;9.354;2024-03-08T02:35:08;22.40;37.50
1329;DHT22;658;48.820;9.354;2024-03-08T02:39:09;22.40;37.50
1329;DHT22;658;48.820;9.354;2024-03-08T02:43:11;22.40;37.40
1329;DHT22;658;48.820;9.354;2024-03-08T02:47:12;22.50;37.50
1329;DHT22;658;48.820;9.354;2024-03-08T02:51:13;22.50;37.40
1329;DHT22;658;48.820;9.354;2024-03-08T02:55:14;22.50;37.40
1329;DHT22;658;48.820;9.354;2024-03-08T02:59:16;22.50;37.30
1329;DHT22;658;48.820;9.354;2024-03-08T03:03:19;22.50;37.30
1329;DHT22;658;48.820;9.354;2024-03-08T03:07:19;22.60;37.40
1329;DHT22;658;48.820;9.354;2024-03-08T03:11:23;22.60;37.40
1329;DHT22;658;48.820;9.354;2024-03-08T03:15:23;22.60;37.40
1329;DHT22;658;48.820;9.354;2024-03-08T03:19:24;22.60;37.30
1329;DHT22;658;48.820;9.354;2024-03-08T03:23:24;22.60;37.30
1329;DHT22;658;48.820;9.354;2024-03-08T03:27:26;22.70;37.30
1329;DHT22;658;48.820;9.354;2024-03-08T03:31:29;22.70;37.20
1329;DHT22;658;48.820;9.354;2024-03-08T03:35:31;22.70;37.20
1329;DHT22;658;48.820;9.354;2024-03-08T03:39:31;22.70;37.10
1329;DHT22;658;48.820;9.354;2024-03-08T03:43:32;22.70;37.10
1329;DHT22;658;48.820;9.354;2024-03-08T03:47:33;22.70;37.00
1329;DHT22;658;48.820;9.354;2024-03-08T03:51:33;22.70;37.00
1329;DHT22;658;48.820;9.354;2024-03-08T03:55:35;22.70;36.90
1329;DHT22;658;48.820;9.354;2024-03-08T03:59:37;22.80;37.00
1329;DHT22;658;48.820;9.354;2024-03-08T04:03:41;22.70;36.80
1329;DHT22;658;48.820;9.354;2024-03-08T04:07:43;22.70;36.80
1329;DHT22;658;48.820;9.354;2024-03-08T04:11:45;22.70;36.80
1329;DHT22;658;48.820;9.354;2024-03-08T04:15:45;22.70;36.80
1329;DHT22;658;48.820;9.354;2024-03-08T04:19:48;22.80;36.70
1329;DHT22;658;48.820;9.354;2024-03-08T04:23:49;22.70;36.60
1329;DHT22;658;48.820;9.354;2024-03-08T04:27:49;22.70;37.20
1329;DHT22;658;48.820;9.354;2024-03-08T04:31:50;22.80;36.60
1329;DHT22;658;48.820;9.354;2024-03-08T04:35:54;22.70;36.60
1329;DHT22;658;48.820;9.354;2024-03-08T04:39:55;22.70;36.50
1329;DHT22;658;48.820;9.354;2024-03-08T04:43:56;22.70;36.50
1329;DHT22;658;48.820;9.354;2024-03-08T04:48:00;22.70;36.40
1329;DHT22;658;48.820;9.354;2024-03-08T04:52:03;22.70;36.40
1329;DHT22;658;48.820;9.354;2024-03-08T04:56:04;22.70;36.40
1329;DHT22;658;48.820;9.354;2024-03-08T05:00:07;22.70;36.40
1329;DHT22;658;48.820;9.354;2024-03-08T05:04:11;22.70;36.40
1329;DHT22;658;48.820;9.354;2024-03-08T05:08:12;22.70;36.40
1329;DHT22;658;48.820;9.354;2024-03-08T05:12:12;22.70;36.30
1329;DHT22;658;48.820;9.354;2024-03-08T05:16:15;22.70;36.30
1329;DHT22;658;48.820;9.354;2024-03-08T05:20:16;22.70;36.30
1329;DHT22;658;48.820;9.354;2024-03-08T05:24:17;22.70;36.60
1329;DHT22;658;48.820;9.354;2024-03-08T05:28:18;22.70;36.30
1329;DHT22;658;48.820;9.354;2024-03-08T05:32:22;22.70;36.20
1329;DHT22;658;48.820;9.354;2024-03-08T05:36:23;22.70;36.20
1329;DHT22;658;48.820;9.354;2024-03-08T05:40:23;22.70;36.10
1329;DHT22;658;48.820;9.354;2024-03-08T05:44:26;22.70;36.10
1329;DHT22;658;48.820;9.354;2024-03-08T05:48:29;22.70;36.20
1329;DHT22;658;48.820;9.354;2024-03-08T05:52:29;22.70;36.20
1329;DHT22;658;48.820;9.354;2024-03-08T05:56:30;22.70;36.20
1329;DHT22;658;48.820;9.354;2024-03-08T06:00:30;22.70;36.20
1329;DHT22;658;48.820;9.354;2024-03-08T06:04:34;22.60;36.30
1329;DHT22;658;48.820;9.354;2024-03-08T06:08:34;22.60;36.60
1329;DHT22;658;48.820;9.354;2024-03-08T06:12:35;22.70;37.10
1329;DHT22;658;48.820;9.354;2024-03-08T06:16:40;22.70;36.80
1329;DHT22;658;48.820;9.354;2024-03-08T06:20:40;22.70;38.10
1329;DHT22;658;48.820;9.354;2024-03-08T06:24:44;22.60;38.00
1329;DHT22;658;48.820;9.354;2024-03-08T06:28:44;22.60;38.00
1329;DHT22;658;48.820;9.354;2024-03-08T06:32:45;22.60;37.90
1329;DHT22;658;48.820;9.354;2024-03-08T06:36:45;22.60;38.40
1329;DHT22;658;48.820;9.354;2024-03-08T06:40:48;22.60;38.60
1329;DHT22;658;48.820;9.354;2024-03-08T06:44:49;22.70;38.20
1329;DHT22;658;48.820;9.354;2024-03-08T06:48:50;22.70;38.00
1329;DHT22;658;48.820;9.354;2024-03-08T06:52:50;22.70;38.00
1329;DHT22;658;48.820;9.354;2024-03-08T06:56:53;22.70;37.80
1329;DHT22;658;48.820;9.354;2024-03-08T07:00:59;22.70;38.80
1329;DHT22;658;48.820;9.354;2024-03-08T07:05:01;22.70;38.30
1329;DHT22;658;48.820;9.354;2024-03-08T07:09:01;22.60;38.50
1329;DHT22;658;48.820;9.354;2024-03-08T07:13:02;22.70;38.30
1329;DHT22;658;48.820;9.354;2024-03-08T07:17:03;22.70;38.10
1329;DHT22;658;48.820;9.354;2024-03-08T07:21:04;22.70;37.90
1329;DHT22;658;48.820;9.354;2024-03-08T07:25:08;22.70;38.00
1329;DHT22;658;48.820;9.354;2024-03-08T07:29:22;22.70;38.20
1329;DHT22;658;48.820;9.354;2024-03-08T07:33:23;22.70;38.20
1329;DHT22;658;48.820;9.354;2024-03-08T07:37:23;22.70;38.20
1329;DHT22;658;48.820;9.354;2024-03-08T07:41:24;22.70;38.00
1329;DHT22;658;48.820;9.354;2024-03-08T07:45:25;22.80;37.90
1329;DHT22;658;48.820;9.354;2024-03-08T07:49:25;22.80;37.60
1329;DHT22;658;48.820;9.354;2024-03-08T07:53:28;22.90;37.60
1329;DHT22;658;48.820;9.354;2024-03-08T07:57:29;22.90;37.50
1329;DHT22;658;48.820;9.354;2024-03-08T08:01:33;22.90;37.20
1329;DHT22;658;48.820;9.354;2024-03-08T08:05:34;23.00;37.20
1329;DHT22;658;48.820;9.354;2024-03-08T08:09:36;23.00;37.00
1329;DHT22;658;48.820;9.354;2024-03-08T08:13:36;23.00;37.30
1329;DHT22;658;48.820;9.354;2024-03-08T08:17:37;22.90;37.50
1329;DHT22;658;48.820;9.354;2024-03-08T08:21:39;22.90;37.50
1329;DHT22;658;48.820;9.354;2024-03-08T08:25:39;23.00;37.50
1329;DHT22;658;48.820;9.354;2024-03-08T08:29:40;23.00;37.30
1329;DHT22;658;48.820;9.354;2024-03-08T08:33:40;23.00;37.20
1329;DHT22;658;48.820;9.354;2024-03-08T08:37:41;23.00;37.20
1329;DHT22;658;48.820;9.354;2024-03-08T08:41:44;23.10;37.20
1329;DHT22;658;48.820;9.354;2024-03-08T08:45:47;23.10;37.10
1329;DHT22;658;48.820;9.354;2024-03-08T08:49:50;23.10;37.20
1329;DHT22;658;48.820;9.354;2024-03-08T08:53:51;23.20;37.10
1329;DHT22;658;48.820;9.354;2024-03-08T08:57:52;23.20;36.90
1329;DHT22;658;48.820;9.354;2024-03-08T09:01:53;23.20;37.30
1329;DHT22;658;48.820;9.354;2024-03-08T09:05:54;23.10;37.20
1329;DHT22;658;48.820;9.354;2024-03-08T09:09:54;23.20;37.20
1329;DHT22;658;48.820;9.354;2024-03-08T09:13:58;23.10;37.20
1329;DHT22;658;48.820;9.354;2024-03-08T09:17:59;23.10;37.20
1329;DHT22;658;48.820;9.354;2024-03-08T09:22:06;23.10;37.70
1329;DHT22;658;48.820;9.354;2024-03-08T09:26:09;23.10;37.00
1329;DHT22;658;48.820;9.354;2024-03-08T09:30:11;23.10;37.20
1329;DHT22;658;48.820;9.354;2024-03-08T09:34:16;23.10;37.40
1329;DHT22;658;48.820;9.354;2024-03-08T09:38:16;23.00;37.50
1329;DHT22;658;48.820;9.354;2024-03-08T09:42:17;23.00;37.50
1329;DHT22;658;48.820;9.354;2024-03-08T09:46:19;23.00;38.00
1329;DHT22;658;48.820;9.354;2024-03-08T09:50:23;23.00;38.40
1329;DHT22;658;48.820;9.354;2024-03-08T09:54:25;23.00;38.40
1329;DHT22;658;48.820;9.354;2024-03-08T09:58:29;23.00;38.50
1329;DHT22;658;48.820;9.354;2024-03-08T10:02:35;23.00;39.00
1329;DHT22;658;48.820;9.354;2024-03-08T10:06:38;23.00;39.30
1329;DHT22;658;48.820;9.354;2024-03-08T10:10:39;23.10;39.40
1329;DHT22;658;48.820;9.354;2024-03-08T10:14:43;23.00;39.40
1329;DHT22;658;48.820;9.354;2024-03-08T10:18:45;23.10;39.70
1329;DHT22;658;48.820;9.354;2024-03-08T10:22:46;23.10;39.80
1329;DHT22;658;48.820;9.354;2024-03-08T10:27:00;23.10;39.80
1329;DHT22;658;48.820;9.354;2024-03-08T10:31:07;23.10;39.90
1329;DHT22;658;48.820;9.354;2024-03-08T10:35:08;23.10;40.00
1329;DHT22;658;48.820;9.354;2024-03-08T10:39:35;23.10;40.00
1329;DHT22;658;48.820;9.354;2024-03-08T10:52:25;23.10;40.20
1329;DHT22;658;48.820;9.354;2024-03-08T10:56:28;23.10;40.30
1329;DHT22;658;48.820;9.354;2024-03-08T11:00:29;23.20;40.20
1329;DHT22;658;48.820;9.354;2024-03-08T11:04:32;23.20;40.00
1329;DHT22;658;48.820;9.354;2024-03-08T11:08:36;23.20;40.00
1329;DHT22;658;48.820;9.354;2024-03-08T11:12:39;23.30;40.00
1329;DHT22;658;48.820;9.354;2024-03-08T11:16:43;23.30;39.80
1329;DHT22;658;48.820;9.354;2024-03-08T11:20:46;23.40;39.70
1329;DHT22;658;48.820;9.354;2024-03-08T11:24:49;23.50;39.70
1329;DHT22;658;48.820;9.354;2024-03-08T11:28:50;23.60;39.40
1329;DHT22;658;48.820;9.354;2024-03-08T11:33:01;23.80;39.00
1329;DHT22;658;48.820;9.354;2024-03-08T11:37:04;24.00;38.60
1329;DHT22;658;48.820;9.354;2024-03-08T11:41:06;24.20;38.20
1329;DHT22;658;48.820;9.354;2024-03-08T11:45:09;24.30;37.80
1329;DHT22;658;48.820;9.354;2024-03-08T11:49:12;24.50;37.30
1329;DHT22;658;48.820;9.354;2024-03-08T11:53:14;24.60;36.90
1329;DHT22;658;48.820;9.354;2024-03-08T11:57:17;24.70;36.60
1329;DHT22;658;48.820;9.354;2024-03-08T12:01:20;24.80;36.60
1329;DHT22;658;48.820;9.354;2024-03-08T12:05:21;24.90;36.10
1329;DHT22;658;48.820;9.354;2024-03-08T12:09:21;25.10;36.00
1329;DHT22;658;48.820;9.354;2024-03-08T12:13:22;25.30;35.60
1329;DHT22;658;48.820;9.354;2024-03-08T12:17:23;25.50;35.10
1329;DHT22;658;48.820;9.354;2024-03-08T12:21:26;25.70;33.60
1329;DHT22;658;48.820;9.354;2024-03-08T12:25:33;25.60;31.40
1329;DHT22;658;48.820;9.354;2024-03-08T12:29:38;25.40;30.30
1329;DHT22;658;48.820;9.354;2024-03-08T12:33:53;25.30;29.90
1329;DHT22;658;48.820;9.354;2024-03-08T12:37:56;25.30;31.30
1329;DHT22;658;48.820;9.354;2024-03-08T12:41:56;25.60;31.60
1329;DHT22;658;48.820;9.354;2024-03-08T12:45:57;25.80;31.50
1329;DHT22;658;48.820;9.354;2024-03-08T12:49:58;26.00;31.40
1329;DHT22;658;48.820;9.354;2024-03-08T12:53:59;26.20;31.60
1329;DHT22;658;48.820;9.354;2024-03-08T12:58:01;26.40;31.60
1329;DHT22;658;48.820;9.354;2024-03-08T13:02:01;26.60;31.50
1329;DHT22;658;48.820;9.354;2024-03-08T13:06:03;26.70;31.30
1329;DHT22;658;48.820;9.354;2024-03-08T13:10:08;26.80;31.20
1329;DHT22;658;48.820;9.354;2024-03-08T13:14:09;27.00;30.90
1329;DHT22;658;48.820;9.354;2024-03-08T13:18:10;27.30;30.70
1329;DHT22;658;48.820;9.354;2024-03-08T13:22:11;27.40;30.40
1329;DHT22;658;48.820;9.354;2024-03-08T13:26:16;27.60;30.30
1329;DHT22;658;48.820;9.354;2024-03-08T13:30:19;27.80;30.00
1329;DHT22;658;48.820;9.354;2024-03-08T13:34:24;27.80;30.20
1329;DHT22;658;48.820;9.354;2024-03-08T13:38:29;27.60;30.20
1329;DHT22;658;48.820;9.354;2024-03-08T13:42:32;27.40;30.60
1329;DHT22;658;48.820;9.354;2024-03-08T13:46:35;27.10;30.80
1329;DHT22;658;48.820;9.354;2024-03-08T13:50:39;27.10;31.20
1329;DHT22;658;48.820;9.354;2024-03-08T13:54:44;26.90;31.30
1329;DHT22;658;48.820;9.354;2024-03-08T13:58:45;26.90;31.60
1329;DHT22;658;48.820;9.354;2024-03-08T14:02:46;26.70;30.70
1329;DHT22;658;48.820;9.354;2024-03-08T14:06:46;26.60;30.70
1329;DHT22;658;48.820;9.354;2024-03-08T14:10:47;26.50;30.60
1329;DHT22;658;48.820;9.354;2024-03-08T14:14:49;26.40;30.50
1329;DHT22;658;48.820;9.354;2024-03-08T14:18:49;26.30;30.70
1329;DHT22;658;48.820;9.354;2024-03-08T14:22:51;26.20;31.10
1329;DHT22;658;48.820;9.354;2024-03-08T14:26:52;26.20;31.30
1329;DHT22;658;48.820;9.354;2024-03-08T14:30:53;26.20;31.40
1329;DHT22;658;48.820;9.354;2024-03-08T14:34:54;26.20;31.40
1329;DHT22;658;48.820;9.354;2024-03-08T14:38:57;26.10;31.50
1329;DHT22;658;48.820;9.354;2024-03-08T14:42:57;26.10;31.60
1329;DHT22;658;48.820;9.354;2024-03-08T14:46:58;26.10;31.80
1329;DHT22;658;48.820;9.354;2024-03-08T14:50:59;26.00;31.90
1329;DHT22;658;48.820;9.354;2024-03-08T14:55:00;26.00;32.10
1329;DHT22;658;48.820;9.354;2024-03-08T14:59:03;25.90;32.30
1329;DHT22;658;48.820;9.354;2024-03-08T15:03:05;25.90;32.50
1329;DHT22;658;48.820;9.354;2024-03-08T15:07:07;25.90;32.80
1329;DHT22;658;48.820;9.354;2024-03-08T15:11:12;25.90;33.10
1329;DHT22;658;48.820;9.354;2024-03-08T15:15:23;25.80;33.20
1329;DHT22;658;48.820;9.354;2024-03-08T15:19:25;25.90;33.10
1329;DHT22;658;48.820;9.354;2024-03-08T15:23:27;25.80;33.30
1329;DHT22;658;48.820;9.354;2024-03-08T15:27:28;25.80;33.50
1329;DHT22;658;48.820;9.354;2024-03-08T15:31:29;25.70;33.40
1329;DHT22;658;48.820;9.354;2024-03-08T15:35:31;25.60;33.50
1329;DHT22;658;48.820;9.354;2024-03-08T15:39:32;25.60;33.60
1329;DHT22;658;48.820;9.354;2024-03-08T15:43:33;25.60;33.70
1329;DHT22;658;48.820;9.354;2024-03-08T15:47:36;25.50;33.70
1329;DHT22;658;48.820;9.354;2024-03-08T15:51:40;25.50;33.70
1329;DHT22;658;48.820;9.354;2024-03-08T15:55:41;25.50;33.80
1329;DHT22;658;48.820;9.354;2024-03-08T15:59:44;25.40;33.80
1329;DHT22;658;48.820;9.354;2024-03-08T16:03:46;25.40;34.00
1329;DHT22;658;48.820;9.354;2024-03-08T16:07:49;25.30;33.90
1329;DHT22;658;48.820;9.354;2024-03-08T16:11:50;25.30;34.00
1329;DHT22;658;48.820;9.354;2024-03-08T16:15:52;25.30;34.00
1329;DHT22;658;48.820;9.354;2024-03-08T16:19:55;25.20;34.20
1329;DHT22;658;48.820;9.354;2024-03-08T16:23:56;25.20;34.10
1329;DHT22;658;48.820;9.354;2024-03-08T16:27:57;25.10;34.10
1329;DHT22;658;48.820;9.354;2024-03-08T16:31:58;25.10;34.20
1329;DHT22;658;48.820;9.354;2024-03-08T16:35:59;25.00;34.20
1329;DHT22;658;48.820;9.354;2024-03-08T16:40:00;25.00;34.30
1329;DHT22;658;48.820;9.354;2024-03-08T16:44:01;25.00;34.40
1329;DHT22;658;48.820;9.354;2024-03-08T16:48:02;24.90;34.40
1329;DHT22;658;48.820;9.354;2024-03-08T16:52:04;24.90;34.40
1329;DHT22;658;48.820;9.354;2024-03-08T16:56:07;24.80;34.40
1329;DHT22;658;48.820;9.354;2024-03-08T17:00:25;24.80;34.50
1329;DHT22;658;48.820;9.354;2024-03-08T17:04:28;24.70;34.50
1329;DHT22;658;48.820;9.354;2024-03-08T17:08:28;24.70;34.60
1329;DHT22;658;48.820;9.354;2024-03-08T17:12:31;24.60;34.70
1329;DHT22;658;48.820;9.354;2024-03-08T17:16:32;24.50;34.70
1329;DHT22;658;48.820;9.354;2024-03-08T17:20:34;24.50;34.80
1329;DHT22;658;48.820;9.354;2024-03-08T17:24:40;24.50;34.90
1329;DHT22;658;48.820;9.354;2024-03-08T17:28:44;24.40;34.90
1329;DHT22;658;48.820;9.354;2024-03-08T17:32:46;24.40;35.00
1329;DHT22;658;48.820;9.354;2024-03-08T17:36:47;24.30;35.00
1329;DHT22;658;48.820;9.354;2024-03-08T17:40:50;24.30;35.10
1329;DHT22;658;48.820;9.354;2024-03-08T17:44:50;24.20;35.10
1329;DHT22;658;48.820;9.354;2024-03-08T17:48:51;24.20;35.10
1329;DHT22;658;48.820;9.354;2024-03-08T17:52:54;24.20;35.20
1329;DHT22;658;48.820;9.354;2024-03-08T17:56:55;24.10;35.10
1329;DHT22;658;48.820;9.354;2024-03-08T18:00:56;24.10;35.20
1329;DHT22;658;48.820;9.354;2024-03-08T18:04:56;24.10;35.30
1329;DHT22;658;48.820;9.354;2024-03-08T18:08:57;24.00;35.20
1329;DHT22;658;48.820;9.354;2024-03-08T18:12:59;24.00;35.20
1329;DHT22;658;48.820;9.354;2024-03-08T18:16:59;23.90;35.20
1329;DHT22;658;48.820;9.354;2024-03-08T18:21:00;23.90;35.30
1329;DHT22;658;48.820;9.354;2024-03-08T18:25:05;23.90;35.30
1329;DHT22;658;48.820;9.354;2024-03-08T18:29:15;23.90;35.40
1329;DHT22;658;48.820;9.354;2024-03-08T18:33:16;23.80;35.40
1329;DHT22;658;48.820;9.354;2024-03-08T18:37:21;23.80;35.40
1329;DHT22;658;48.820;9.354;2024-03-08T18:41:23;23.80;35.40
1329;DHT22;658;48.820;9.354;2024-03-08T18:45:27;23.70;35.30
1329;DHT22;658;48.820;9.354;2024-03-08T18:49:28;23.70;35.40
1329;DHT22;658;48.820;9.354;2024-03-08T18:53:29;23.60;35.40
1329;DHT22;658;48.820;9.354;2024-03-08T18:57:30;23.60;35.40
1329;DHT22;658;48.820;9.354;2024-03-08T19:01:31;23.60;35.30
1329;DHT22;658;48.820;9.354;2024-03-08T19:05:37;23.60;35.40
1329;DHT22;658;48.820;9.354;2024-03-08T19:09:40;23.50;35.30
1329;DHT22;658;48.820;9.354;2024-03-08T19:13:42;23.50;35.40
1329;DHT22;658;48.820;9.354;2024-03-08T19:17:44;23.50;35.40
1329;DHT22;658;48.820;9.354;2024-03-08T19:21:45;23.40;35.30
1329;DHT22;658;48.820;9.354;2024-03-08T19:25:46;23.40;35.30
1329;DHT22;658;48.820;9.354;2024-03-08T19:29:46;23.40;35.30
1329;DHT22;658;48.820;9.354;2024-03-08T19:33:47;23.30;35.30
1329;DHT22;658;48.820;9.354;2024-03-08T19:37:51;23.30;35.30
1329;DHT22;658;48.820;9.354;2024-03-08T19:41:55;23.30;35.30
1329;DHT22;658;48.820;9.354;2024-03-08T19:45:56;23.30;35.40
1329;DHT22;658;48.820;9.354;2024-03-08T19:49:58;23.20;35.30
1329;DHT22;658;48.820;9.354;2024-03-08T19:53:59;23.20;35.30
1329;DHT22;658;48.820;9.354;2024-03-08T19:58:02;23.20;35.30
1329;DHT22;658;48.820;9.354;2024-03-08T20:02:02;23.20;35.30
1329;DHT22;658;48.820;9.354;2024-03-08T20:06:03;23.20;35.40
1329;DHT22;658;48.820;9.354;2024-03-08T20:10:07;23.20;35.40
1329;DHT22;658;48.820;9.354;2024-03-08T20:14:10;23.10;35.40
1329;DHT22;658;48.820;9.354;2024-03-08T20:18:11;23.10;35.50
1329;DHT22;658;48.820;9.354;2024-03-08T20:22:11;23.10;35.60
1329;DHT22;658;48.820;9.354;2024-03-08T20:26:12;23.10;35.70
1329;DHT22;658;48.820;9.354;2024-03-08T20:30:16;23.00;35.70
1329;DHT22;658;48.820;9.354;2024-03-08T20:34:21;23.00;35.90
1329;DHT22;658;48.820;9.354;2024-03-08T20:38:23;23.00;35.90
1329;DHT22;658;48.820;9.354;2024-03-08T20:42:26;23.00;36.00
1329;DHT22;658;48.820;9.354;2024-03-08T20:46:28;23.00;36.00
1329;DHT22;658;48.820;9.354;2024-03-08T20:50:29;23.00;36.20
1329;DHT22;658;48.820;9.354;2024-03-08T20:54:30;22.90;36.10
1329;DHT22;658;48.820;9.354;2024-03-08T20:58:34;22.90;36.10
1329;DHT22;658;48.820;9.354;2024-03-08T21:02:34;22.90;36.10
1329;DHT22;658;48.820;9.354;2024-03-08T21:06:35;22.90;36.10
1329;DHT22;658;48.820;9.354;2024-03-08T21:10:35;22.90;36.20
1329;DHT22;658;48.820;9.354;2024-03-08T21:14:36;22.90;36.20
1329;DHT22;658;48.820;9.354;2024-03-08T21:18:38;22.90;36.20
1329;DHT22;658;48.820;9.354;2024-03-08T21:22:39;22.90;36.30
1329;DHT22;658;48.820;9.354;2024-03-08T21:26:40;22.80;36.30
1329;DHT22;658;48.820;9.354;2024-03-08T21:30:40;22.80;36.20
1329;DHT22;658;48.820;9.354;2024-03-08T21:34:41;22.80;36.30
1329;DHT22;658;48.820;9.354;2024-03-08T21:38:42;22.80;36.30
1329;DHT22;658;48.820;9.354;2024-03-08T21:42:43;22.80;36.30
1329;DHT22;658;48.820;9.354;2024-03-08T21:46:44;22.70;36.20
1329;DHT22;658;48.820;9.354;2024-03-08T21:50:45;22.70;36.30
1329;DHT22;658;48.820;9.354;2024-03-08T21:54:45;22.70;36.30
1329;DHT22;658;48.820;9.354;2024-03-08T21:58:46;22.70;36.30
1329;DHT22;658;48.820;9.354;2024-03-08T22:02:48;22.70;36.30
1329;DHT22;658;48.820;9.354;2024-03-08T22:06:51;22.70;36.40
1329;DHT22;658;48.820;9.354;2024-03-08T22:10:54;22.60;36.30
1329;DHT22;658;48.820;9.354;2024-03-08T22:14:58;22.60;36.30
1329;DHT22;658;48.820;9.354;2024-03-08T22:18:59;22.60;36.20
1329;DHT22;658;48.820;9.354;2024-03-08T22:22:59;22.60;36.20
1329;DHT22;658;48.820;9.354;2024-03-08T22:27:01;22.60;36.20
1329;DHT22;658;48.820;9.354;2024-03-08T22:31:02;22.60;36.20
1329;DHT22;658;48.820;9.354;2024-03-08T22:35:06;22.50;36.10
1329;DHT22;658;48.820;9.354;2024-03-08T22:39:07;22.60;36.20
1329;DHT22;658;48.820;9.354;2024-03-08T22:43:11;22.50;36.20
1329;DHT22;658;48.820;9.354;2024-03-08T22:47:11;22.50;36.10
1329;DHT22;658;48.820;9.354;2024-03-08T22:51:12;22.50;36.10
1329;DHT22;658;48.820;9.354;2024-03-08T22:55:16;22.50;36.70
1329;DHT22;658;48.820;9.354;2024-03-08T22:59:19;22.50;36.10
1329;DHT22;658;48.820;9.354;2024-03-08T23:03:27;22.50;36.10
1329;DHT22;658;48.820;9.354;2024-03-08T23:07:32;22.50;36.80
1329;DHT22;658;48.820;9.354;2024-03-08T23:11:32;22.40;36.10
1329;DHT22;658;48.820;9.354;2024-03-08T23:15:34;22.40;36.00
1329;DHT22;658;48.820;9.354;2024-03-08T23:19:38;22.40;36.10
1329;DHT22;658;48.820;9.354;2024-03-08T23:23:42;22.40;36.10
1329;DHT22;658;48.820;9.354;2024-03-08T23:27:52;22.40;36.10
1329;DHT22;658;48.820;9.354;2024-03-08T23:31:53;22.40;36.10
1329;DHT22;658;48.820;9.354;2024-03-08T23:35:55;22.30;36.00
1329;DHT22;658;48.820;9.354;2024-03-08T23:39:56;22.30;36.10
1329;DHT22;658;48.820;9.354;2024-03-08T23:43:59;22.30;36.10
1329;DHT22;658;48.820;9.354;2024-03-08T23:48:03;22.30;36.20
1329;DHT22;658;48.820;9.354;2024-03-08T23:52:04;22.30;36.20
1329;DHT22;658;48.820;9.354;2024-03-08T23:56:04;22.30;36.20
